sensor_id;sensor_type;location;lat;lon;timestamp;pressure;altitude;pressure_sealevel;temperature;humidity
7480;BME280;3781;42.272;22.658;2023-03-24T00:00:19;94688.34;;;5.76;100.00
7480;BME280;3781;42.272;22.658;2023-03-24T00:02:48;94684.03;;;5.64;100.00
7480;BME280;3781;42.272;22.658;2023-03-24T00:05:17;94696.19;;;5.62;100.00
7480;BME280;3781;42.272;22.658;2023-03-24T00:07:44;94675.06;;;5.45;100.00
7480;BME280;3781;42.272;22.658;2023-03-24T00:10:14;94686.06;;;5.34;100.00
7480;BME280;3781;42.272;22.658;2023-03-24T00:12:42;94682.09;;;5.03;100.00
7480;BME280;3781;42.272;22.658;2023-03-24T00:15:12;94697.69;;;4.88;100.00
7480;BME280;3781;42.272;22.658;2023-03-24T00:17:40;94687.84;;;4.94;100.00
7480;BME280;3781;42.272;22.658;2023-03-24T00:20:09;94688.91;;;5.04;100.00
7480;BME280;3781;42.272;22.658;2023-03-24T00:22:39;94699.22;;;5.17;100.00
7480;BME280;3781;42.272;22.658;2023-03-24T00:25:08;94702.13;;;5.25;100.00
7480;BME280;3781;42.272;22.658;2023-03-24T00:27:37;94684.00;;;5.26;100.00
7480;BME280;3781;42.272;22.658;2023-03-24T00:30:06;94703.63;;;5.54;100.00
7480;BME280;3781;42.272;22.658;2023-03-24T00:32:34;94693.91;;;5.45;100.00
7480;BME280;3781;42.272;22.658;2023-03-24T00:35:04;94700.28;;;5.40;100.00
7480;BME280;3781;42.272;22.658;2023-03-24T00:37:33;94694.94;;;5.30;100.00
7480;BME280;3781;42.272;22.658;2023-03-24T00:40:02;94689.34;;;5.23;100.00
7480;BME280;3781;42.272;22.658;2023-03-24T00:42:32;94694.88;;;5.05;100.00
7480;BME280;3781;42.272;22.658;2023-03-24T00:45:01;94688.78;;;4.67;100.00
7480;BME280;3781;42.272;22.658;2023-03-24T00:47:30;94686.00;;;4.96;100.00
7480;BME280;3781;42.272;22.658;2023-03-24T00:50:01;94686.34;;;5.17;100.00
7480;BME280;3781;42.272;22.658;2023-03-24T00:52:29;94666.81;;;5.27;100.00
7480;BME280;3781;42.272;22.658;2023-03-24T00:54:59;94684.88;;;5.52;100.00
7480;BME280;3781;42.272;22.658;2023-03-24T00:57:27;94677.63;;;5.57;100.00
7480;BME280;3781;42.272;22.658;2023-03-24T01:00:04;94677.13;;;5.52;100.00
7480;BME280;3781;42.272;22.658;2023-03-24T01:02:37;94669.41;;;5.52;100.00
7480;BME280;3781;42.272;22.658;2023-03-24T01:05:05;94664.03;;;5.55;100.00
7480;BME280;3781;42.272;22.658;2023-03-24T01:07:33;94662.00;;;5.60;100.00
7480;BME280;3781;42.272;22.658;2023-03-24T01:10:00;94665.81;;;5.67;100.00
7480;BME280;3781;42.272;22.658;2023-03-24T01:12:30;94661.69;;;5.65;100.00
7480;BME280;3781;42.272;22.658;2023-03-24T01:14:58;94666.91;;;5.51;100.00
7480;BME280;3781;42.272;22.658;2023-03-24T01:17:26;94666.91;;;5.38;100.00
7480;BME280;3781;42.272;22.658;2023-03-24T01:19:55;94662.38;;;5.29;100.00
7480;BME280;3781;42.272;22.658;2023-03-24T01:22:26;94657.63;;;5.23;100.00
7480;BME280;3781;42.272;22.658;2023-03-24T01:24:53;94662.97;;;5.07;100.00
7480;BME280;3781;42.272;22.658;2023-03-24T01:27:20;94646.47;;;4.85;100.00
7480;BME280;3781;42.272;22.658;2023-03-24T01:29:47;94664.34;;;4.86;100.00
7480;BME280;3781;42.272;22.658;2023-03-24T01:32:14;94668.94;;;4.69;100.00
7480;BME280;3781;42.272;22.658;2023-03-24T01:34:42;94647.59;;;4.54;100.00
7480;BME280;3781;42.272;22.658;2023-03-24T01:37:09;94654.56;;;4.52;100.00
7480;BME280;3781;42.272;22.658;2023-03-24T01:39:36;94658.59;;;4.56;100.00
7480;BME280;3781;42.272;22.658;2023-03-24T01:42:03;94651.34;;;4.75;100.00
7480;BME280;3781;42.272;22.658;2023-03-24T01:44:32;94660.38;;;4.68;100.00
7480;BME280;3781;42.272;22.658;2023-03-24T01:47:01;94657.56;;;4.32;100.00
7480;BME280;3781;42.272;22.658;2023-03-24T01:49:31;94658.00;;;4.38;100.00
7480;BME280;3781;42.272;22.658;2023-03-24T01:52:05;94666.72;;;4.50;100.00
7480;BME280;3781;42.272;22.658;2023-03-24T01:54:35;94654.75;;;4.49;100.00
7480;BME280;3781;42.272;22.658;2023-03-24T01:57:05;94631.88;;;4.32;100.00
7480;BME280;3781;42.272;22.658;2023-03-24T01:59:35;94657.22;;;4.50;100.00
7480;BME280;3781;42.272;22.658;2023-03-24T02:02:04;94652.94;;;4.64;100.00
7480;BME280;3781;42.272;22.658;2023-03-24T02:04:34;94659.78;;;4.77;100.00
7480;BME280;3781;42.272;22.658;2023-03-24T02:07:10;94656.53;;;4.88;100.00
7480;BME280;3781;42.272;22.658;2023-03-24T02:09:38;94666.03;;;5.00;100.00
7480;BME280;3781;42.272;22.658;2023-03-24T02:12:05;94678.41;;;5.20;100.00
7480;BME280;3781;42.272;22.658;2023-03-24T02:14:32;94672.19;;;4.85;100.00
7480;BME280;3781;42.272;22.658;2023-03-24T02:17:28;94674.38;;;4.64;100.00
7480;BME280;3781;42.272;22.658;2023-03-24T02:26:32;94669.41;;;4.34;100.00
7480;BME280;3781;42.272;22.658;2023-03-24T02:29:14;94670.53;;;4.30;100.00
7480;BME280;3781;42.272;22.658;2023-03-24T02:32:08;94662.84;;;4.16;100.00
7480;BME280;3781;42.272;22.658;2023-03-24T02:35:01;94676.41;;;4.18;100.00
7480;BME280;3781;42.272;22.658;2023-03-24T02:37:58;94673.94;;;4.03;100.00
7480;BME280;3781;42.272;22.658;2023-03-24T02:40:39;94670.94;;;3.96;100.00
7480;BME280;3781;42.272;22.658;2023-03-24T02:43:17;94646.56;;;3.75;100.00
7480;BME280;3781;42.272;22.658;2023-03-24T02:45:52;94677.91;;;3.94;100.00
7480;BME280;3781;42.272;22.658;2023-03-24T02:48:31;94666.00;;;3.93;100.00
7480;BME280;3781;42.272;22.658;2023-03-24T02:51:06;94679.75;;;3.92;100.00
7480;BME280;3781;42.272;22.658;2023-03-24T02:53:40;94681.47;;;3.92;100.00
7480;BME280;3781;42.272;22.658;2023-03-24T02:56:18;94672.06;;;3.78;100.00
7480;BME280;3781;42.272;22.658;2023-03-24T02:58:50;94672.69;;;3.81;100.00
7480;BME280;3781;42.272;22.658;2023-03-24T03:01:19;94664.16;;;3.81;100.00
7480;BME280;3781;42.272;22.658;2023-03-24T03:04:00;94641.97;;;3.66;100.00
7480;BME280;3781;42.272;22.658;2023-03-24T03:06:32;94654.44;;;3.72;100.00
7480;BME280;3781;42.272;22.658;2023-03-24T03:09:04;94665.81;;;3.68;100.00
7480;BME280;3781;42.272;22.658;2023-03-24T03:11:34;94652.97;;;3.54;100.00
7480;BME280;3781;42.272;22.658;2023-03-24T03:14:03;94651.72;;;3.61;100.00
7480;BME280;3781;42.272;22.658;2023-03-24T03:16:34;94649.66;;;3.66;100.00
7480;BME280;3781;42.272;22.658;2023-03-24T03:19:07;94624.00;;;3.66;100.00
7480;BME280;3781;42.272;22.658;2023-03-24T03:21:39;94642.25;;;3.75;100.00
7480;BME280;3781;42.272;22.658;2023-03-24T03:24:10;94626.38;;;3.69;100.00
7480;BME280;3781;42.272;22.658;2023-03-24T03:26:42;94622.72;;;3.73;100.00
7480;BME280;3781;42.272;22.658;2023-03-24T03:29:13;94631.25;;;3.73;100.00
7480;BME280;3781;42.272;22.658;2023-03-24T03:31:46;94631.13;;;3.75;100.00
7480;BME280;3781;42.272;22.658;2023-03-24T03:34:20;94631.88;;;3.77;100.00
7480;BME280;3781;42.272;22.658;2023-03-24T03:36:53;94635.94;;;3.67;100.00
7480;BME280;3781;42.272;22.658;2023-03-24T03:39:27;94634.44;;;3.49;100.00
7480;BME280;3781;42.272;22.658;2023-03-24T03:41:57;94656.81;;;3.47;100.00
7480;BME280;3781;42.272;22.658;2023-03-24T03:44:24;94647.47;;;3.32;100.00
7480;BME280;3781;42.272;22.658;2023-03-24T03:46:51;94669.75;;;3.45;100.00
7480;BME280;3781;42.272;22.658;2023-03-24T03:49:18;94651.13;;;3.28;100.00
7480;BME280;3781;42.272;22.658;2023-03-24T03:51:45;94660.94;;;3.35;100.00
7480;BME280;3781;42.272;22.658;2023-03-24T03:54:12;94636.81;;;3.38;100.00
7480;BME280;3781;42.272;22.658;2023-03-24T03:56:42;94659.41;;;3.75;100.00
7480;BME280;3781;42.272;22.658;2023-03-24T03:59:25;94641.41;;;3.75;100.00
7480;BME280;3781;42.272;22.658;2023-03-24T04:01:52;94669.84;;;3.86;100.00
7480;BME280;3781;42.272;22.658;2023-03-24T04:04:41;94667.38;;;3.70;100.00
7480;BME280;3781;42.272;22.658;2023-03-24T04:07:14;94671.38;;;3.46;100.00
7480;BME280;3781;42.272;22.658;2023-03-24T04:09:53;94671.69;;;3.56;100.00
7480;BME280;3781;42.272;22.658;2023-03-24T04:12:38;94666.94;;;3.50;100.00
7480;BME280;3781;42.272;22.658;2023-03-24T04:15:36;94679.72;;;3.36;100.00
7480;BME280;3781;42.272;22.658;2023-03-24T04:18:16;94660.28;;;3.32;100.00
7480;BME280;3781;42.272;22.658;2023-03-24T04:20:47;94660.59;;;3.41;100.00
7480;BME280;3781;42.272;22.658;2023-03-24T04:23:25;94675.53;;;3.49;100.00
7480;BME280;3781;42.272;22.658;2023-03-24T04:26:02;94677.53;;;3.44;100.00
7480;BME280;3781;42.272;22.658;2023-03-24T04:28:36;94679.94;;;3.47;100.00
7480;BME280;3781;42.272;22.658;2023-03-24T04:31:12;94663.41;;;3.51;100.00
7480;BME280;3781;42.272;22.658;2023-03-24T04:33:46;94674.81;;;3.61;100.00
7480;BME280;3781;42.272;22.658;2023-03-24T04:36:20;94679.22;;;3.73;100.00
7480;BME280;3781;42.272;22.658;2023-03-24T04:38:52;94663.41;;;3.79;100.00
7480;BME280;3781;42.272;22.658;2023-03-24T04:41:25;94676.28;;;3.93;100.00
7480;BME280;3781;42.272;22.658;2023-03-24T04:43:53;94673.22;;;4.01;100.00
7480;BME280;3781;42.272;22.658;2023-03-24T04:46:23;94672.75;;;4.08;100.00
7480;BME280;3781;42.272;22.658;2023-03-24T04:48:50;94675.56;;;4.18;100.00
7480;BME280;3781;42.272;22.658;2023-03-24T04:51:18;94668.00;;;3.88;100.00
7480;BME280;3781;42.272;22.658;2023-03-24T04:53:45;94678.44;;;4.13;100.00
7480;BME280;3781;42.272;22.658;2023-03-24T04:56:25;94671.81;;;4.23;100.00
7480;BME280;3781;42.272;22.658;2023-03-24T04:58:52;94674.16;;;4.40;100.00
7480;BME280;3781;42.272;22.658;2023-03-24T05:01:21;94677.78;;;4.50;100.00
7480;BME280;3781;42.272;22.658;2023-03-24T05:03:49;94673.75;;;4.61;100.00
7480;BME280;3781;42.272;22.658;2023-03-24T05:06:15;94674.63;;;4.74;100.00
7480;BME280;3781;42.272;22.658;2023-03-24T05:08:42;94687.41;;;4.88;100.00
7480;BME280;3781;42.272;22.658;2023-03-24T05:11:09;94682.69;;;4.94;100.00
7480;BME280;3781;42.272;22.658;2023-03-24T05:13:36;94684.97;;;4.99;100.00
7480;BME280;3781;42.272;22.658;2023-03-24T05:16:03;94685.41;;;5.18;100.00
7480;BME280;3781;42.272;22.658;2023-03-24T05:18:30;94697.97;;;5.10;100.00
7480;BME280;3781;42.272;22.658;2023-03-24T05:20:58;94693.00;;;5.07;100.00
7480;BME280;3781;42.272;22.658;2023-03-24T05:23:25;94699.56;;;5.38;100.00
7480;BME280;3781;42.272;22.658;2023-03-24T05:25:52;94698.47;;;5.54;100.00
7480;BME280;3781;42.272;22.658;2023-03-24T05:28:29;94707.94;;;5.66;100.00
7480;BME280;3781;42.272;22.658;2023-03-24T05:30:56;94704.34;;;5.81;100.00
7480;BME280;3781;42.272;22.658;2023-03-24T05:33:22;94703.00;;;6.01;100.00
7480;BME280;3781;42.272;22.658;2023-03-24T05:35:49;94704.47;;;5.92;100.00
7480;BME280;3781;42.272;22.658;2023-03-24T05:38:17;94705.06;;;6.21;100.00
7480;BME280;3781;42.272;22.658;2023-03-24T05:40:44;94710.81;;;6.25;100.00
7480;BME280;3781;42.272;22.658;2023-03-24T05:43:11;94704.41;;;6.43;100.00
7480;BME280;3781;42.272;22.658;2023-03-24T05:45:38;94717.22;;;6.68;100.00
7480;BME280;3781;42.272;22.658;2023-03-24T05:48:05;94715.84;;;6.75;100.00
7480;BME280;3781;42.272;22.658;2023-03-24T05:50:32;94721.00;;;6.75;100.00
7480;BME280;3781;42.272;22.658;2023-03-24T05:52:59;94723.75;;;6.61;100.00
7480;BME280;3781;42.272;22.658;2023-03-24T05:55:28;94713.59;;;6.70;100.00
7480;BME280;3781;42.272;22.658;2023-03-24T05:57:55;94720.56;;;6.81;100.00
7480;BME280;3781;42.272;22.658;2023-03-24T06:00:22;94722.22;;;6.82;100.00
7480;BME280;3781;42.272;22.658;2023-03-24T06:02:49;94716.88;;;6.85;100.00
7480;BME280;3781;42.272;22.658;2023-03-24T06:05:15;94720.63;;;7.16;100.00
7480;BME280;3781;42.272;22.658;2023-03-24T06:07:42;94722.88;;;7.20;100.00
7480;BME280;3781;42.272;22.658;2023-03-24T06:10:09;94719.19;;;7.35;100.00
7480;BME280;3781;42.272;22.658;2023-03-24T06:12:40;94721.72;;;7.48;100.00
7480;BME280;3781;42.272;22.658;2023-03-24T06:15:08;94723.06;;;7.76;100.00
7480;BME280;3781;42.272;22.658;2023-03-24T06:17:35;94721.00;;;8.14;100.00
7480;BME280;3781;42.272;22.658;2023-03-24T06:20:03;94720.41;;;8.66;100.00
7480;BME280;3781;42.272;22.658;2023-03-24T06:22:38;94720.19;;;9.11;99.12
7480;BME280;3781;42.272;22.658;2023-03-24T06:25:05;94711.03;;;10.01;89.77
7480;BME280;3781;42.272;22.658;2023-03-24T06:27:34;94709.16;;;10.63;84.28
7480;BME280;3781;42.272;22.658;2023-03-24T06:30:03;94727.63;;;11.29;78.59
7480;BME280;3781;42.272;22.658;2023-03-24T06:32:30;94723.84;;;11.71;74.53
7480;BME280;3781;42.272;22.658;2023-03-24T06:34:56;94724.63;;;11.62;74.70
7480;BME280;3781;42.272;22.658;2023-03-24T06:37:23;94736.69;;;11.92;72.39
7480;BME280;3781;42.272;22.658;2023-03-24T06:39:51;94736.16;;;11.69;71.72
7480;BME280;3781;42.272;22.658;2023-03-24T06:42:18;94731.53;;;13.02;68.65
7480;BME280;3781;42.272;22.658;2023-03-24T06:44:45;94736.41;;;14.03;64.71
7480;BME280;3781;42.272;22.658;2023-03-24T06:47:13;94741.09;;;14.60;60.02
7480;BME280;3781;42.272;22.658;2023-03-24T06:49:40;94739.56;;;14.83;58.41
7480;BME280;3781;42.272;22.658;2023-03-24T06:52:07;94750.44;;;14.37;58.92
7480;BME280;3781;42.272;22.658;2023-03-24T06:54:34;94746.16;;;14.87;58.55
7480;BME280;3781;42.272;22.658;2023-03-24T06:57:00;94743.56;;;14.18;59.41
7480;BME280;3781;42.272;22.658;2023-03-24T06:59:27;94744.47;;;13.21;60.69
7480;BME280;3781;42.272;22.658;2023-03-24T07:01:54;94746.16;;;12.49;64.69
7480;BME280;3781;42.272;22.658;2023-03-24T07:04:22;94745.75;;;11.78;68.22
7480;BME280;3781;42.272;22.658;2023-03-24T07:06:50;94739.41;;;11.33;70.14
7480;BME280;3781;42.272;22.658;2023-03-24T07:09:17;94736.25;;;11.29;71.21
7480;BME280;3781;42.272;22.658;2023-03-24T07:11:44;94733.84;;;10.79;74.55
7480;BME280;3781;42.272;22.658;2023-03-24T07:14:11;94740.13;;;10.86;76.39
7480;BME280;3781;42.272;22.658;2023-03-24T07:16:38;94740.69;;;10.99;75.98
7480;BME280;3781;42.272;22.658;2023-03-24T07:19:04;94739.22;;;11.06;77.29
7480;BME280;3781;42.272;22.658;2023-03-24T07:21:33;94735.38;;;10.91;75.99
7480;BME280;3781;42.272;22.658;2023-03-24T07:24:00;94734.72;;;11.08;77.37
7480;BME280;3781;42.272;22.658;2023-03-24T07:26:27;94744.56;;;11.14;75.20
7480;BME280;3781;42.272;22.658;2023-03-24T07:28:54;94743.66;;;11.44;73.96
7480;BME280;3781;42.272;22.658;2023-03-24T07:31:21;94745.47;;;11.81;71.13
7480;BME280;3781;42.272;22.658;2023-03-24T07:33:48;94737.78;;;12.82;66.69
7480;BME280;3781;42.272;22.658;2023-03-24T07:36:15;94739.53;;;13.63;63.75
7480;BME280;3781;42.272;22.658;2023-03-24T07:38:43;94748.28;;;14.58;61.46
7480;BME280;3781;42.272;22.658;2023-03-24T07:41:10;94749.06;;;15.84;57.34
7480;BME280;3781;42.272;22.658;2023-03-24T07:43:37;94739.56;;;16.23;55.61
7480;BME280;3781;42.272;22.658;2023-03-24T07:46:04;94753.44;;;16.80;52.95
7480;BME280;3781;42.272;22.658;2023-03-24T07:48:31;94749.00;;;16.81;52.87
7480;BME280;3781;42.272;22.658;2023-03-24T07:50:57;94748.81;;;17.29;50.02
7480;BME280;3781;42.272;22.658;2023-03-24T07:53:24;94748.69;;;17.61;49.56
7480;BME280;3781;42.272;22.658;2023-03-24T07:55:53;94736.53;;;18.05;47.83
7480;BME280;3781;42.272;22.658;2023-03-24T07:58:19;94745.81;;;19.05;45.25
7480;BME280;3781;42.272;22.658;2023-03-24T08:00:46;94748.34;;;17.25;48.49
7480;BME280;3781;42.272;22.658;2023-03-24T08:03:13;94740.56;;;17.40;48.06
7480;BME280;3781;42.272;22.658;2023-03-24T08:05:41;94740.34;;;18.40;46.21
7480;BME280;3781;42.272;22.658;2023-03-24T08:08:08;94734.59;;;18.45;45.29
7480;BME280;3781;42.272;22.658;2023-03-24T08:10:36;94743.94;;;20.21;42.70
7480;BME280;3781;42.272;22.658;2023-03-24T08:13:04;94740.41;;;19.93;41.52
7480;BME280;3781;42.272;22.658;2023-03-24T08:15:30;94737.75;;;20.14;41.68
7480;BME280;3781;42.272;22.658;2023-03-24T08:17:57;94736.16;;;20.13;40.48
7480;BME280;3781;42.272;22.658;2023-03-24T08:20:24;94714.28;;;20.19;40.34
7480;BME280;3781;42.272;22.658;2023-03-24T08:22:51;94726.69;;;21.01;40.73
7480;BME280;3781;42.272;22.658;2023-03-24T08:25:20;94720.53;;;20.94;39.85
7480;BME280;3781;42.272;22.658;2023-03-24T08:27:48;94711.34;;;21.65;38.33
7480;BME280;3781;42.272;22.658;2023-03-24T08:30:18;94719.72;;;21.75;38.11
7480;BME280;3781;42.272;22.658;2023-03-24T08:32:46;94709.78;;;21.24;39.14
7480;BME280;3781;42.272;22.658;2023-03-24T08:35:15;94712.78;;;21.68;38.60
7480;BME280;3781;42.272;22.658;2023-03-24T08:37:43;94712.78;;;21.61;38.21
7480;BME280;3781;42.272;22.658;2023-03-24T08:40:12;94719.41;;;23.16;36.65
7480;BME280;3781;42.272;22.658;2023-03-24T08:42:43;94708.84;;;23.60;36.04
7480;BME280;3781;42.272;22.658;2023-03-24T08:45:11;94695.03;;;22.62;36.08
7480;BME280;3781;42.272;22.658;2023-03-24T08:47:39;94705.56;;;23.01;36.85
7480;BME280;3781;42.272;22.658;2023-03-24T08:50:07;94712.06;;;23.11;36.34
7480;BME280;3781;42.272;22.658;2023-03-24T08:52:34;94709.97;;;23.40;35.44
7480;BME280;3781;42.272;22.658;2023-03-24T08:55:01;94714.63;;;23.51;34.44
7480;BME280;3781;42.272;22.658;2023-03-24T08:57:28;94700.59;;;23.37;35.14
7480;BME280;3781;42.272;22.658;2023-03-24T08:59:55;94696.47;;;23.48;34.87
7480;BME280;3781;42.272;22.658;2023-03-24T09:02:22;94695.44;;;23.55;35.11
7480;BME280;3781;42.272;22.658;2023-03-24T09:04:50;94695.09;;;23.76;34.55
7480;BME280;3781;42.272;22.658;2023-03-24T09:07:20;94690.47;;;22.95;35.19
7480;BME280;3781;42.272;22.658;2023-03-24T09:09:47;94700.66;;;23.11;35.43
7480;BME280;3781;42.272;22.658;2023-03-24T09:12:14;94690.59;;;25.13;33.28
7480;BME280;3781;42.272;22.658;2023-03-24T09:14:46;94689.22;;;25.40;32.76
7480;BME280;3781;42.272;22.658;2023-03-24T09:17:13;94683.19;;;24.97;33.38
7480;BME280;3781;42.272;22.658;2023-03-24T09:19:40;94683.19;;;25.33;32.82
7480;BME280;3781;42.272;22.658;2023-03-24T09:22:09;94671.81;;;24.41;33.75
7480;BME280;3781;42.272;22.658;2023-03-24T09:24:35;94682.91;;;26.95;29.76
7480;BME280;3781;42.272;22.658;2023-03-24T09:27:02;94685.06;;;26.40;31.57
7480;BME280;3781;42.272;22.658;2023-03-24T09:29:29;94674.03;;;25.66;31.99
7480;BME280;3781;42.272;22.658;2023-03-24T09:31:56;94667.03;;;24.74;33.61
7480;BME280;3781;42.272;22.658;2023-03-24T09:34:24;94665.81;;;24.52;33.93
7480;BME280;3781;42.272;22.658;2023-03-24T09:36:51;94660.44;;;24.83;33.33
7480;BME280;3781;42.272;22.658;2023-03-24T09:39:19;94660.72;;;24.26;35.06
7480;BME280;3781;42.272;22.658;2023-03-24T09:41:47;94642.72;;;24.95;33.09
7480;BME280;3781;42.272;22.658;2023-03-24T09:44:22;94654.63;;;25.11;33.28
7480;BME280;3781;42.272;22.658;2023-03-24T09:46:54;94647.22;;;24.77;32.81
7480;BME280;3781;42.272;22.658;2023-03-24T09:49:27;94651.59;;;24.89;33.26
7480;BME280;3781;42.272;22.658;2023-03-24T09:51:57;94636.22;;;24.91;33.39
7480;BME280;3781;42.272;22.658;2023-03-24T09:54:30;94630.47;;;25.30;33.65
7480;BME280;3781;42.272;22.658;2023-03-24T09:57:02;94642.38;;;24.67;33.13
7480;BME280;3781;42.272;22.658;2023-03-24T09:59:33;94631.63;;;25.34;32.27
7480;BME280;3781;42.272;22.658;2023-03-24T10:02:00;94625.63;;;25.87;31.95
7480;BME280;3781;42.272;22.658;2023-03-24T10:04:32;94630.16;;;26.62;30.35
7480;BME280;3781;42.272;22.658;2023-03-24T10:07:02;94629.56;;;27.18;30.68
7480;BME280;3781;42.272;22.658;2023-03-24T10:09:34;94630.16;;;28.16;29.26
7480;BME280;3781;42.272;22.658;2023-03-24T10:12:15;94633.81;;;28.27;28.20
7480;BME280;3781;42.272;22.658;2023-03-24T10:14:52;94591.84;;;28.27;29.77
7480;BME280;3781;42.272;22.658;2023-03-24T10:17:28;94616.22;;;27.86;29.94
7480;BME280;3781;42.272;22.658;2023-03-24T10:20:04;94610.38;;;27.33;30.80
7480;BME280;3781;42.272;22.658;2023-03-24T10:22:43;94604.34;;;27.49;30.52
7480;BME280;3781;42.272;22.658;2023-03-24T10:25:20;94600.19;;;27.30;30.31
7480;BME280;3781;42.272;22.658;2023-03-24T10:27:52;94600.19;;;28.14;29.22
7480;BME280;3781;42.272;22.658;2023-03-24T10:30:25;94593.72;;;28.44;28.73
7480;BME280;3781;42.272;22.658;2023-03-24T10:32:53;94587.09;;;27.85;29.42
7480;BME280;3781;42.272;22.658;2023-03-24T10:35:23;94587.47;;;28.55;28.43
7480;BME280;3781;42.272;22.658;2023-03-24T10:37:51;94583.84;;;27.66;28.61
7480;BME280;3781;42.272;22.658;2023-03-24T10:40:23;94580.84;;;28.41;28.70
7480;BME280;3781;42.272;22.658;2023-03-24T10:42:51;94578.41;;;28.06;28.98
7480;BME280;3781;42.272;22.658;2023-03-24T10:45:23;94570.69;;;27.48;28.10
7480;BME280;3781;42.272;22.658;2023-03-24T10:47:52;94567.78;;;28.77;28.13
7480;BME280;3781;42.272;22.658;2023-03-24T10:50:23;94565.19;;;29.47;25.72
7480;BME280;3781;42.272;22.658;2023-03-24T10:52:50;94569.41;;;29.43;25.79
7480;BME280;3781;42.272;22.658;2023-03-24T10:55:20;94557.06;;;29.86;26.46
7480;BME280;3781;42.272;22.658;2023-03-24T10:57:51;94558.97;;;28.98;26.63
7480;BME280;3781;42.272;22.658;2023-03-24T11:00:21;94545.88;;;28.59;26.97
7480;BME280;3781;42.272;22.658;2023-03-24T11:02:57;94548.94;;;28.51;27.20
7480;BME280;3781;42.272;22.658;2023-03-24T11:05:27;94547.81;;;28.47;25.77
7480;BME280;3781;42.272;22.658;2023-03-24T11:07:57;94535.00;;;28.65;25.87
7480;BME280;3781;42.272;22.658;2023-03-24T11:10:37;94533.56;;;29.18;25.90
7480;BME280;3781;42.272;22.658;2023-03-24T11:13:04;94524.44;;;29.67;24.76
7480;BME280;3781;42.272;22.658;2023-03-24T11:15:33;94524.41;;;30.57;23.67
7480;BME280;3781;42.272;22.658;2023-03-24T11:18:11;94520.50;;;30.85;22.32
7480;BME280;3781;42.272;22.658;2023-03-24T11:20:42;94514.47;;;28.32;22.04
7480;BME280;3781;42.272;22.658;2023-03-24T11:23:15;94505.84;;;27.47;24.01
7480;BME280;3781;42.272;22.658;2023-03-24T11:25:49;94513.66;;;27.82;24.06
7480;BME280;3781;42.272;22.658;2023-03-24T11:28:21;94495.78;;;28.71;22.19
7480;BME280;3781;42.272;22.658;2023-03-24T11:30:52;94499.41;;;29.03;23.06
7480;BME280;3781;42.272;22.658;2023-03-24T11:33:21;94482.53;;;29.02;21.70
7480;BME280;3781;42.272;22.658;2023-03-24T11:35:50;94492.84;;;29.37;22.56
7480;BME280;3781;42.272;22.658;2023-03-24T11:38:18;94470.91;;;29.99;21.53
7480;BME280;3781;42.272;22.658;2023-03-24T11:40:53;94487.38;;;30.49;20.42
7480;BME280;3781;42.272;22.658;2023-03-24T11:43:22;94476.69;;;31.16;19.58
7480;BME280;3781;42.272;22.658;2023-03-24T11:45:55;94466.72;;;31.06;20.04
7480;BME280;3781;42.272;22.658;2023-03-24T11:48:30;94457.59;;;31.07;19.21
7480;BME280;3781;42.272;22.658;2023-03-24T11:51:00;94457.78;;;30.91;19.04
7480;BME280;3781;42.272;22.658;2023-03-24T11:53:31;94457.16;;;31.46;20.32
7480;BME280;3781;42.272;22.658;2023-03-24T11:56:04;94445.25;;;31.01;21.42
7480;BME280;3781;42.272;22.658;2023-03-24T11:58:38;94442.00;;;30.01;21.65
7480;BME280;3781;42.272;22.658;2023-03-24T12:01:11;94442.69;;;29.01;22.86
7480;BME280;3781;42.272;22.658;2023-03-24T12:03:54;94437.31;;;29.54;21.29
7480;BME280;3781;42.272;22.658;2023-03-24T12:06:32;94438.28;;;29.38;21.13
7480;BME280;3781;42.272;22.658;2023-03-24T12:09:09;94433.91;;;29.32;21.71
7480;BME280;3781;42.272;22.658;2023-03-24T12:11:59;94431.78;;;29.98;20.90
7480;BME280;3781;42.272;22.658;2023-03-24T12:14:40;94424.28;;;30.93;20.96
7480;BME280;3781;42.272;22.658;2023-03-24T12:17:14;94420.91;;;31.38;20.33
7480;BME280;3781;42.272;22.658;2023-03-24T12:22:44;94417.13;;;31.29;20.63
7480;BME280;3781;42.272;22.658;2023-03-24T12:25:37;94404.31;;;30.64;20.06
7480;BME280;3781;42.272;22.658;2023-03-24T12:31:03;94399.00;;;30.22;20.56
7480;BME280;3781;42.272;22.658;2023-03-24T12:33:42;94395.50;;;30.74;20.89
7480;BME280;3781;42.272;22.658;2023-03-24T12:36:21;94395.88;;;31.12;20.82
7480;BME280;3781;42.272;22.658;2023-03-24T12:39:01;94389.69;;;32.43;19.55
7480;BME280;3781;42.272;22.658;2023-03-24T12:44:42;94379.56;;;32.84;18.89
7480;BME280;3781;42.272;22.658;2023-03-24T12:47:28;94372.53;;;31.13;19.20
7480;BME280;3781;42.272;22.658;2023-03-24T12:50:06;94363.59;;;30.72;20.45
7480;BME280;3781;42.272;22.658;2023-03-24T12:52:52;94355.66;;;31.88;19.71
7480;BME280;3781;42.272;22.658;2023-03-24T12:55:29;94359.84;;;32.49;18.84
7480;BME280;3781;42.272;22.658;2023-03-24T12:58:03;94355.69;;;33.21;18.39
7480;BME280;3781;42.272;22.658;2023-03-24T13:00:35;94351.34;;;34.21;18.17
7480;BME280;3781;42.272;22.658;2023-03-24T13:03:05;94344.22;;;33.39;18.25
7480;BME280;3781;42.272;22.658;2023-03-24T13:05:39;94320.75;;;30.92;19.28
7480;BME280;3781;42.272;22.658;2023-03-24T13:08:10;94337.56;;;30.06;20.06
7480;BME280;3781;42.272;22.658;2023-03-24T13:10:40;94329.25;;;30.74;19.78
7480;BME280;3781;42.272;22.658;2023-03-24T13:13:13;94336.84;;;31.02;20.52
7480;BME280;3781;42.272;22.658;2023-03-24T13:15:46;94327.59;;;30.58;20.32
7480;BME280;3781;42.272;22.658;2023-03-24T13:18:26;94326.22;;;29.52;21.36
7480;BME280;3781;42.272;22.658;2023-03-24T13:20:59;94322.66;;;27.91;22.43
7480;BME280;3781;42.272;22.658;2023-03-24T13:23:36;94315.69;;;27.69;22.70
7480;BME280;3781;42.272;22.658;2023-03-24T13:26:13;94309.03;;;28.09;22.89
7480;BME280;3781;42.272;22.658;2023-03-24T13:28:49;94308.34;;;29.21;22.68
7480;BME280;3781;42.272;22.658;2023-03-24T13:31:22;94308.16;;;30.16;21.10
7480;BME280;3781;42.272;22.658;2023-03-24T13:33:51;94304.31;;;30.02;21.64
7480;BME280;3781;42.272;22.658;2023-03-24T13:36:29;94308.94;;;28.48;22.52
7480;BME280;3781;42.272;22.658;2023-03-24T13:39:03;94288.84;;;28.67;21.47
7480;BME280;3781;42.272;22.658;2023-03-24T13:41:34;94292.59;;;28.66;22.09
7480;BME280;3781;42.272;22.658;2023-03-24T13:44:07;94295.81;;;28.99;21.78